Time;durP1;ratioP1;P1;durP2;ratioP2;P2;SDS_P1;SDS_P2;PMS_P1;PMS_P2;Temp;Humidity;BMP_temperature;BMP_pressure;BME280_temperature;BME280_humidity;BME280_pressure;Samples;Min_cycle;Max_cycle;Signal;HPM_P1;HPM_P2
2020/12/27 00:02:15;;;;;;;15.07;7.13;;;;;;;-1.29;57.89;99140.34;5133454;27;20039;-68
2020/12/27 00:04:40;;;;;;;10.07;6.18;;;;;;;-1.27;57.91;99145.50;5132949;27;20401;-69
2020/12/27 00:07:08;;;;;;;12.80;7.07;;;;;;;-1.32;57.30;99143.94;5132839;27;20033;-70
2020/12/27 00:09:41;;;;;;;11.70;7.07;;;;;;;-1.24;57.73;99142.75;5132693;27;20413;-70
2020/12/27 00:12:07;;;;;;;11.73;6.97;;;;;;;-1.20;57.06;99141.72;5132667;27;20931;-71
2020/12/27 00:14:33;;;;;;;13.90;7.72;;;;;;;-1.36;57.58;99110.84;5134513;27;20050;-70
2020/12/27 00:17:07;;;;;;;14.32;7.63;;;;;;;-1.14;56.62;99146.69;5144328;27;20024;-63
2020/12/27 00:19:33;;;;;;;13.65;7.80;;;;;;;-1.08;56.62;99149.06;5132730;27;20489;-70
2020/12/27 00:21:59;;;;;;;13.85;7.93;;;;;;;-1.20;56.53;99131.22;5132820;27;20031;-68
2020/12/27 00:24:24;;;;;;;13.73;7.70;;;;;;;-1.12;56.38;99158.00;5132355;27;20115;-68
2020/12/27 00:26:50;;;;;;;13.88;7.65;;;;;;;-1.09;56.40;99157.84;5132277;27;20084;-70
2020/12/27 00:29:16;;;;;;;15.55;7.90;;;;;;;-1.03;56.43;99162.84;5132379;27;20039;-69
2020/12/27 00:31:41;;;;;;;13.80;7.45;;;;;;;-1.01;55.85;99168.88;5132883;27;20389;-69
2020/12/27 00:34:07;;;;;;;11.85;6.97;;;;;;;-1.06;55.63;99173.47;5132606;27;20110;-69
2020/12/27 00:36:32;;;;;;;14.35;8.10;;;;;;;-1.07;55.78;99168.31;5132052;27;20536;-69
2020/12/27 00:38:58;;;;;;;16.55;7.88;;;;;;;-1.11;55.73;99172.84;5131829;27;20486;-70
2020/12/27 00:41:25;;;;;;;15.65;8.63;;;;;;;-1.13;55.65;99172.03;5132442;27;20502;-70
2020/12/27 00:43:52;;;;;;;13.82;7.80;;;;;;;-1.26;56.29;99168.22;5132425;27;20031;-69
2020/12/27 00:46:18;;;;;;;13.57;7.43;;;;;;;-1.35;56.79;99183.47;5132565;27;20027;-71
2020/12/27 00:48:44;;;;;;;13.75;7.50;;;;;;;-1.43;56.35;99161.06;5132400;27;20023;-69
2020/12/27 00:51:09;;;;;;;12.23;7.22;;;;;;;-1.26;55.82;99187.47;5132419;27;20055;-70
2020/12/27 00:53:35;;;;;;;16.33;7.72;;;;;;;-1.32;55.65;99185.97;5132060;27;20102;-69
2020/12/27 00:56:00;;;;;;;15.65;7.68;;;;;;;-1.51;56.70;99185.00;5131854;27;20023;-68
2020/12/27 00:58:26;;;;;;;15.25;7.80;;;;;;;-1.67;56.51;99180.41;5132404;27;20102;-70
2020/12/27 01:00:52;;;;;;;13.18;7.15;;;;;;;-1.68;57.25;99202.31;5131864;27;20135;-65
2020/12/27 01:03:18;;;;;;;14.10;7.07;;;;;;;-1.78;57.18;99182.59;5132374;27;20130;-68
2020/12/27 01:05:43;;;;;;;12.60;6.57;;;;;;;-1.89;57.27;99173.41;5131407;27;20606;-74
2020/12/27 01:08:09;;;;;;;14.27;7.30;;;;;;;-2.22;57.62;99126.59;5132206;27;20035;-69
2020/12/27 01:10:34;;;;;;;11.48;6.78;;;;;;;-1.76;57.49;99207.88;5131755;27;20037;-69
2020/12/27 01:12:59;;;;;;;12.68;7.68;;;;;;;-1.76;57.30;99214.88;5131570;27;20039;-69
2020/12/27 01:15:25;;;;;;;12.85;7.30;;;;;;;-2.35;57.92;99114.88;5131292;27;20038;-70
2020/12/27 01:17:50;;;;;;;15.50;7.60;;;;;;;-1.81;57.70;99204.59;5132056;27;20031;-57
2020/12/27 01:20:16;;;;;;;13.43;7.38;;;;;;;-1.79;58.12;99222.88;5132165;27;20035;-71
2020/12/27 01:22:41;;;;;;;11.77;7.40;;;;;;;-1.91;58.01;99209.34;5131420;27;20035;-70
2020/12/27 01:25:09;;;;;;;13.93;7.10;;;;;;;-1.93;57.63;99195.44;5131173;27;20031;-70
2020/12/27 01:27:36;;;;;;;12.80;7.50;;;;;;;-1.77;57.96;99221.91;5131645;27;20173;-71
2020/12/27 01:30:05;;;;;;;15.02;7.53;;;;;;;-1.89;58.25;99197.00;5131647;27;20050;-71
2020/12/27 01:32:31;;;;;;;13.48;7.35;;;;;;;-1.86;58.22;99203.03;5130516;27;20441;-68
2020/12/27 01:34:57;;;;;;;14.90;8.68;;;;;;;-1.78;58.11;99212.34;5130787;27;20035;-70
2020/12/27 01:37:22;;;;;;;13.75;7.65;;;;;;;-1.65;58.58;99241.56;5131350;27;20043;-63
2020/12/27 01:39:48;;;;;;;14.02;7.38;;;;;;;-1.50;57.89;99258.47;5131499;27;20388;-71
2020/12/27 01:42:13;;;;;;;11.90;6.85;;;;;;;-1.55;58.32;99257.81;5130747;27;20043;-69
2020/12/27 01:44:39;;;;;;;12.57;7.05;;;;;;;-1.57;58.57;99249.13;5131170;27;20031;-71
2020/12/27 01:47:21;;;;;;;13.35;7.25;;;;;;;-1.57;58.69;99256.16;5131242;27;20118;-70
2020/12/27 01:49:47;;;;;;;13.88;7.63;;;;;;;-1.72;58.46;99245.31;5131138;27;20046;-70
2020/12/27 01:52:12;;;;;;;13.98;7.50;;;;;;;-1.65;58.73;99275.69;5130523;27;20035;-69
2020/12/27 01:54:39;;;;;;;14.90;7.63;;;;;;;-1.79;59.23;99250.00;5131286;27;20035;-70
2020/12/27 01:57:16;;;;;;;13.57;7.18;;;;;;;-1.63;60.03;99267.75;5130655;27;20427;-70
2020/12/27 01:59:42;;;;;;;13.82;7.63;;;;;;;-1.73;59.25;99267.25;5130837;27;20066;-69
2020/12/27 02:02:08;;;;;;;14.05;7.28;;;;;;;-1.68;59.72;99270.56;5130799;27;20387;-69
2020/12/27 02:04:34;;;;;;;14.43;7.38;;;;;;;-1.80;59.96;99258.78;5128962;27;20444;-68
2020/12/27 02:07:04;;;;;;;13.52;7.30;;;;;;;-2.05;59.78;99209.00;5131106;28;20038;-70
2020/12/27 02:09:30;;;;;;;14.40;7.93;;;;;;;-1.59;59.41;99278.06;5131164;28;20027;-69
2020/12/27 02:12:04;;;;;;;11.77;7.22;;;;;;;-1.66;59.84;99257.38;5131043;28;20255;-69
2020/12/27 02:14:30;;;;;;;14.32;7.65;;;;;;;-1.56;59.69;99298.09;5130284;28;20035;-69
2020/12/27 02:16:55;;;;;;;15.65;7.68;;;;;;;-1.55;59.47;99293.69;5130678;28;20035;-68
2020/12/27 02:19:21;;;;;;;14.77;8.05;;;;;;;-1.54;59.57;99298.91;5130939;28;20059;-70
2020/12/27 02:21:48;;;;;;;12.52;7.18;;;;;;;-1.54;59.84;99288.41;5130751;28;20034;-69
2020/12/27 02:24:14;;;;;;;12.88;7.38;;;;;;;-2.17;59.54;99200.72;5130712;28;20096;-70
2020/12/27 02:26:39;;;;;;;13.48;7.45;;;;;;;-1.67;59.50;99277.53;5130892;28;20056;-69
2020/12/27 02:29:08;;;;;;;13.68;7.57;;;;;;;-1.60;60.05;99296.50;5130098;28;20485;-70
2020/12/27 02:31:34;;;;;;;14.20;7.85;;;;;;;-1.53;59.58;99311.09;5130361;28;20050;-68
2020/12/27 02:33:59;;;;;;;13.13;7.47;;;;;;;-1.51;59.82;99308.41;5120597;28;20035;-70
2020/12/27 02:36:25;;;;;;;12.70;7.10;;;;;;;-1.49;59.54;99314.44;5130618;28;20463;-65
2020/12/27 02:38:50;;;;;;;15.45;8.02;;;;;;;-1.57;59.52;99316.53;5129936;28;20046;-70
2020/12/27 02:41:21;;;;;;;13.10;7.28;;;;;;;-1.48;59.57;99321.41;5130383;28;20039;-71
2020/12/27 02:43:47;;;;;;;13.30;7.35;;;;;;;-1.47;60.20;99318.75;5130637;28;20511;-69
2020/12/27 02:46:21;;;;;;;13.30;7.63;;;;;;;-1.45;60.05;99316.91;5130607;28;20035;-70
2020/12/27 02:48:47;;;;;;;14.27;6.95;;;;;;;-1.43;59.46;99323.88;5130467;28;20164;-68
2020/12/27 02:51:12;;;;;;;14.00;6.80;;;;;;;-1.40;59.37;99318.50;5130328;28;20031;-70
2020/12/27 02:53:38;;;;;;;11.98;7.05;;;;;;;-1.42;59.71;99323.81;5130313;28;20122;-67
2020/12/27 02:56:03;;;;;;;12.35;7.03;;;;;;;-1.42;59.62;99334.31;5117155;28;20071;-69
2020/12/27 02:58:29;;;;;;;14.63;6.70;;;;;;;-1.60;59.57;99302.63;5109592;28;20027;-68
2020/12/27 03:00:55;;;;;;;12.70;7.20;;;;;;;-1.43;59.64;99335.25;5109907;28;20139;-69
2020/12/27 03:03:20;;;;;;;13.82;6.65;;;;;;;-1.43;59.15;99332.63;5118663;28;20122;-69
2020/12/27 03:05:45;;;;;;;12.93;7.50;;;;;;;-1.53;59.21;99337.38;5130268;28;20035;-68
2020/12/27 03:08:11;;;;;;;12.70;6.88;;;;;;;-1.40;59.16;99373.63;5130389;28;20035;-69
2020/12/27 03:10:36;;;;;;;12.88;7.32;;;;;;;-1.42;59.36;99350.06;5130101;28;20201;-69
2020/12/27 03:13:02;;;;;;;11.43;6.80;;;;;;;-1.43;59.53;99350.13;5130210;28;20478;-68
2020/12/27 03:15:27;;;;;;;15.27;7.63;;;;;;;-1.48;59.24;99353.78;5131975;27;20039;-69
2020/12/27 03:17:53;;;;;;;13.65;7.38;;;;;;;-1.47;59.91;99354.63;5133811;27;20041;-69
2020/12/27 03:20:19;;;;;;;11.98;7.10;;;;;;;-1.43;59.20;99365.88;5133683;27;20094;-69
2020/12/27 03:22:45;;;;;;;12.82;6.78;;;;;;;-1.40;59.08;99366.63;5134346;27;20027;-69
2020/12/27 03:25:11;;;;;;;11.65;7.13;;;;;;;-1.46;59.34;99369.47;5134321;27;20046;-69
2020/12/27 03:27:37;;;;;;;12.93;7.15;;;;;;;-1.51;59.37;99377.53;5133402;27;20027;-70
2020/12/27 03:30:06;;;;;;;12.27;6.70;;;;;;;-1.52;59.56;99375.84;5133341;27;20031;-70
2020/12/27 03:32:32;;;;;;;14.48;7.82;;;;;;;-1.54;59.13;99375.03;5132864;27;20054;-71
2020/12/27 03:34:58;;;;;;;14.18;7.75;;;;;;;-1.53;59.29;99373.25;5114763;27;20114;-68
2020/12/27 03:37:24;;;;;;;11.73;7.05;;;;;;;-1.52;59.48;99393.34;5133891;27;20480;-70
2020/12/27 03:39:50;;;;;;;12.35;7.25;;;;;;;-1.50;58.71;99391.50;5133304;27;20031;-69
2020/12/27 03:42:16;;;;;;;11.02;6.60;;;;;;;-1.56;59.18;99378.63;5133002;27;20146;-68
2020/12/27 03:44:42;;;;;;;11.18;6.75;;;;;;;-1.70;58.85;99358.97;5133712;27;20062;-69
2020/12/27 03:47:07;;;;;;;13.32;7.07;;;;;;;-1.45;58.81;99405.31;5132971;27;20114;-70
2020/12/27 03:49:33;;;;;;;12.00;6.90;;;;;;;-1.75;58.47;99350.44;5133212;27;20122;-69
2020/12/27 03:51:58;;;;;;;14.57;7.45;;;;;;;-1.30;57.74;99399.47;5133483;27;20453;-69
2020/12/27 03:54:23;;;;;;;12.90;7.68;;;;;;;-1.37;57.80;99416.41;5133688;27;20039;-70
2020/12/27 03:56:49;;;;;;;15.10;7.88;;;;;;;-1.40;58.12;99428.78;5133043;27;20031;-69
2020/12/27 03:59:14;;;;;;;15.05;7.97;;;;;;;-1.41;57.94;99427.06;5132960;27;20094;-67
2020/12/27 04:01:40;;;;;;;13.85;7.60;;;;;;;-1.51;57.49;99423.94;5132959;27;20043;-72
2020/12/27 04:04:05;;;;;;;14.05;7.35;;;;;;;-1.54;58.12;99421.44;5133304;27;20030;-69
2020/12/27 04:06:31;;;;;;;12.40;7.10;;;;;;;-1.47;58.08;99439.53;5133147;27;20115;-67
2020/12/27 04:08:57;;;;;;;11.18;6.75;;;;;;;-1.47;57.26;99455.28;5132660;27;20184;-64
2020/12/27 04:11:22;;;;;;;15.98;8.32;;;;;;;-1.36;57.31;99461.88;5114521;27;20498;-68
2020/12/27 04:13:48;;;;;;;13.73;8.20;;;;;;;-1.39;56.86;99462.88;5133060;27;20122;-68
2020/12/27 04:16:13;;;;;;;13.38;7.72;;;;;;;-1.45;56.66;99476.22;5132738;27;20445;-69
2020/12/27 04:18:39;;;;;;;13.60;7.93;;;;;;;-1.50;56.66;99457.16;5132620;27;20035;-67
2020/12/27 04:21:04;;;;;;;15.60;7.95;;;;;;;-1.54;56.33;99469.56;5132510;27;20467;-65
2020/12/27 04:23:30;;;;;;;15.80;8.25;;;;;;;-1.59;55.78;99476.72;5132683;27;20074;-66
2020/12/27 04:25:55;;;;;;;14.35;8.25;;;;;;;-1.47;56.11;99489.41;5140160;27;20034;-68
2020/12/27 04:28:21;;;;;;;13.98;8.35;;;;;;;-1.52;55.65;99498.38;5133810;27;20441;-68
2020/12/27 04:30:46;;;;;;;13.55;8.13;;;;;;;-1.60;55.29;99482.88;5132893;27;20027;-68
2020/12/27 04:33:12;;;;;;;13.57;7.72;;;;;;;-1.50;55.58;99497.41;5132363;27;20518;-69
2020/12/27 04:35:37;;;;;;;14.40;7.45;;;;;;;-1.31;55.14;99531.72;5131855;27;20071;-67
2020/12/27 04:38:03;;;;;;;14.75;8.07;;;;;;;-1.51;55.11;99484.31;5132201;27;20027;-69
2020/12/27 04:40:28;;;;;;;13.70;8.18;;;;;;;-1.67;54.84;99470.91;5132714;27;20087;-69
2020/12/27 04:42:54;;;;;;;13.38;7.45;;;;;;;-1.43;54.28;99520.81;5132686;27;20037;-71
2020/12/27 04:45:20;;;;;;;16.58;8.57;;;;;;;-1.46;54.56;99530.50;5131871;27;20031;-70
2020/12/27 04:47:47;;;;;;;16.42;8.02;;;;;;;-1.43;54.23;99555.81;5131717;27;20085;-70
2020/12/27 04:50:15;;;;;;;14.30;7.95;;;;;;;-1.49;53.91;99535.00;5132379;27;20485;-69
2020/12/27 04:52:41;;;;;;;13.32;7.80;;;;;;;-1.46;54.28;99540.16;5132161;27;20213;-68
2020/12/27 04:55:07;;;;;;;14.50;7.65;;;;;;;-1.40;54.20;99549.59;5131833;27;20033;-66
2020/12/27 04:57:34;;;;;;;14.68;8.40;;;;;;;-1.46;54.10;99558.53;5131399;27;20027;-69
2020/12/27 05:00:05;;;;;;;14.65;7.72;;;;;;;-1.45;53.86;99544.47;5129715;27;20055;-69
2020/12/27 05:02:31;;;;;;;14.18;8.27;;;;;;;-1.27;53.66;99555.25;5132002;27;20412;-66
2020/12/27 05:04:56;;;;;;;12.40;7.63;;;;;;;-1.35;53.51;99572.16;5132099;27;20087;-69
2020/12/27 05:07:22;;;;;;;13.63;7.65;;;;;;;-1.62;53.61;99530.22;5113378;27;20039;-69
2020/12/27 05:09:49;;;;;;;15.77;7.68;;;;;;;-1.38;53.94;99574.03;5131593;27;20418;-69
2020/12/27 05:12:15;;;;;;;14.82;8.25;;;;;;;-1.36;53.88;99575.69;5131595;27;20035;-67
2020/12/27 05:14:41;;;;;;;12.82;7.82;;;;;;;-1.32;53.65;99590.44;5131582;27;20042;-69
2020/12/27 05:17:06;;;;;;;15.13;8.60;;;;;;;-1.67;53.22;99524.28;5131430;27;20031;-67
2020/12/27 05:19:32;;;;;;;13.60;7.60;;;;;;;-1.24;53.20;99584.03;5131251;27;20489;-68
2020/12/27 05:22:08;;;;;;;12.88;7.65;;;;;;;-1.22;53.09;99601.47;5131377;27;20070;-62
2020/12/27 05:24:36;;;;;;;14.90;8.23;;;;;;;-1.21;53.28;99613.69;5130770;27;20494;-70
2020/12/27 05:27:09;;;;;;;15.50;7.72;;;;;;;-1.31;53.22;99628.06;5131374;27;20084;-70
2020/12/27 05:29:37;;;;;;;14.68;8.43;;;;;;;-1.35;53.10;99631.69;5130443;27;20042;-69
2020/12/27 05:32:03;;;;;;;13.05;6.60;;;;;;;-1.37;52.91;99644.00;5118642;27;20035;-69
2020/12/27 05:34:30;;;;;;;11.82;6.90;;;;;;;-1.56;53.18;99633.28;5116856;27;20023;-68
2020/12/27 05:36:57;;;;;;;13.95;7.10;;;;;;;-1.54;52.76;99660.34;5128771;27;20087;-68
2020/12/27 05:39:23;;;;;;;12.38;7.50;;;;;;;-1.68;53.10;99661.69;5129148;27;20573;-69
2020/12/27 05:41:49;;;;;;;12.32;7.07;;;;;;;-1.73;53.23;99655.69;5128469;27;20118;-68
2020/12/27 05:44:16;;;;;;;12.32;7.22;;;;;;;-1.69;52.96;99675.69;5128198;27;20059;-66
2020/12/27 05:46:44;;;;;;;13.88;7.30;;;;;;;-1.66;53.30;99674.75;5129082;27;20059;-68
2020/12/27 05:49:10;;;;;;;14.50;7.38;;;;;;;-1.65;53.51;99687.84;5128498;27;20031;-68
2020/12/27 05:51:45;;;;;;;14.35;7.93;;;;;;;-1.70;52.72;99692.34;5130877;27;20123;-68
2020/12/27 05:54:18;;;;;;;11.68;6.97;;;;;;;-1.70;53.20;99705.47;5130625;27;20035;-68
2020/12/27 05:56:53;;;;;;;12.18;7.05;;;;;;;-1.63;52.94;99717.50;5130047;27;20035;-69
2020/12/27 05:59:21;;;;;;;12.38;6.78;;;;;;;-2.01;53.41;99651.34;5130452;27;20059;-67
2020/12/27 06:01:54;;;;;;;14.93;7.28;;;;;;;-1.78;53.20;99697.00;5112255;27;20070;-67
2020/12/27 06:04:56;;;;;;;15.02;7.53;;;;;;;-1.59;53.44;99724.38;5121847;27;20344;-69
2020/12/27 06:07:27;;;;;;;14.20;7.60;;;;;;;-1.62;53.31;99734.09;5108741;28;20035;-67
2020/12/27 06:10:00;;;;;;;12.25;7.00;;;;;;;-1.61;53.42;99735.81;5120227;28;20432;-66
2020/12/27 06:12:45;;;;;;;11.98;6.90;;;;;;;-1.61;53.09;99747.19;5130795;28;20066;-66
2020/12/27 06:15:26;;;;;;;17.52;7.75;;;;;;;-1.99;53.14;99688.03;5127037;28;20455;-64
2020/12/27 06:17:51;;;;;;;12.57;6.85;;;;;;;-1.61;53.17;99757.69;5110351;28;20077;-66
2020/12/27 06:20:18;;;;;;;12.73;7.20;;;;;;;-1.78;53.32;99760.84;5109993;28;20164;-66
2020/12/27 06:22:47;;;;;;;12.73;6.75;;;;;;;-1.79;53.57;99769.63;5112315;28;20039;-65
2020/12/27 06:25:14;;;;;;;14.35;7.13;;;;;;;-1.79;53.49;99760.88;5110207;28;20116;-66
2020/12/27 06:27:40;;;;;;;13.05;7.13;;;;;;;-1.90;52.91;99759.47;5110034;28;20086;-66
2020/12/27 06:30:08;;;;;;;12.43;7.32;;;;;;;-1.97;54.09;99770.19;5109958;28;20055;-67
2020/12/27 06:32:39;;;;;;;13.98;6.68;;;;;;;-2.08;53.58;99778.38;5116827;28;20032;-64
2020/12/27 06:35:07;;;;;;;13.18;7.25;;;;;;;-2.25;53.73;99766.59;5123094;28;20030;-65
2020/12/27 06:37:40;;;;;;;13.32;6.57;;;;;;;-2.03;53.76;99795.72;5130176;28;20130;-66
2020/12/27 06:40:05;;;;;;;10.40;6.10;;;;;;;-2.11;53.20;99779.31;5129969;28;20050;-66
2020/12/27 06:42:32;;;;;;;13.55;6.82;;;;;;;-1.89;53.68;99804.94;5130120;28;20126;-66
2020/12/27 06:44:58;;;;;;;12.90;6.85;;;;;;;-1.76;52.91;99805.41;5130692;28;20542;-62
2020/12/27 06:47:49;;;;;;;11.00;6.20;;;;;;;-1.69;52.60;99806.09;5130270;28;20034;-65
2020/12/27 06:50:20;;;;;;;11.07;5.97;;;;;;;-1.71;52.42;99806.13;5131656;27;20175;-62
2020/12/27 06:52:46;;;;;;;12.82;5.78;;;;;;;-1.72;52.49;99820.16;5133973;27;20168;-61
2020/12/27 06:55:30;;;;;;;10.60;6.05;;;;;;;-1.74;51.94;99837.72;5134549;27;20042;-65
2020/12/27 06:57:56;;;;;;;11.02;5.47;;;;;;;-1.54;52.11;99841.53;5116005;27;20038;-65
2020/12/27 07:00:23;;;;;;;9.45;5.72;;;;;;;-1.49;51.85;99855.38;5124522;27;20421;-66
2020/12/27 07:03:04;;;;;;;12.00;5.82;;;;;;;-1.09;51.07;99850.63;5133888;27;20051;-64
2020/12/27 07:05:33;;;;;;;11.82;6.45;;;;;;;-0.98;50.16;99863.44;5134394;27;20614;-65
2020/12/27 07:08:02;;;;;;;9.68;5.78;;;;;;;-0.93;50.80;99864.16;5134424;27;20070;-65
2020/12/27 07:10:29;;;;;;;10.65;5.93;;;;;;;-1.31;49.93;99806.69;5133756;27;20361;-62
2020/12/27 07:13:04;;;;;;;11.73;6.68;;;;;;;-0.90;49.76;99874.56;5132161;27;20031;-64
2020/12/27 07:15:30;;;;;;;11.70;6.35;;;;;;;-0.91;50.10;99871.06;5133949;27;20035;-64
2020/12/27 07:17:55;;;;;;;10.20;5.72;;;;;;;-0.97;50.24;99870.41;5133847;27;20046;-65
2020/12/27 07:20:22;;;;;;;11.38;6.43;;;;;;;-1.02;50.60;99879.28;5133046;27;20118;-65
2020/12/27 07:22:54;;;;;;;9.93;6.20;;;;;;;-1.07;50.39;99873.34;5133429;27;20035;-64
2020/12/27 07:25:22;;;;;;;10.77;6.28;;;;;;;-1.16;50.35;99886.78;5132732;27;20118;-65
2020/12/27 07:27:48;;;;;;;11.88;5.95;;;;;;;-1.32;50.53;99868.84;5132986;27;20511;-64
2020/12/27 07:30:16;;;;;;;12.68;6.85;;;;;;;-1.12;50.87;99912.03;5132843;27;20079;-65
2020/12/27 07:32:49;;;;;;;11.68;7.00;;;;;;;-1.07;50.07;99915.38;5133026;27;20043;-66
2020/12/27 07:35:15;;;;;;;13.18;7.05;;;;;;;-1.10;50.51;99912.84;5133237;27;20489;-65
2020/12/27 07:37:44;;;;;;;11.05;6.00;;;;;;;-1.10;50.07;99927.75;5132564;27;20075;-69
2020/12/27 07:40:11;;;;;;;11.07;6.20;;;;;;;-1.03;50.50;99930.13;5133232;27;20088;-65
2020/12/27 07:42:37;;;;;;;12.15;6.57;;;;;;;-0.99;49.81;99933.53;5133523;27;20091;-66
2020/12/27 07:45:10;;;;;;;10.93;5.75;;;;;;;-0.94;49.69;99934.25;5133337;27;20031;-61
2020/12/27 07:47:40;;;;;;;11.05;6.35;;;;;;;-1.23;49.34;99869.47;5133326;27;20606;-66
2020/12/27 07:50:17;;;;;;;11.32;6.55;;;;;;;-0.79;48.45;99945.22;5132879;27;20076;-67
2020/12/27 07:52:59;;;;;;;10.18;6.43;;;;;;;-0.90;49.02;99953.44;5112079;28;20063;-67
2020/12/27 07:55:31;;;;;;;9.70;6.00;;;;;;;-0.98;49.40;99955.41;5108980;27;20031;-61
2020/12/27 07:58:07;;;;;;;13.00;7.10;;;;;;;-1.52;49.48;99876.47;5112149;27;20130;-52
2020/12/27 08:00:35;;;;;;;12.90;6.35;;;;;;;-0.88;49.40;99956.88;5124471;27;20566;-61
2020/12/27 08:03:05;;;;;;;11.77;6.30;;;;;;;-0.76;48.90;99969.59;5129602;27;20035;-57
2020/12/27 08:05:31;;;;;;;8.93;5.65;;;;;;;-1.61;48.40;99825.97;5131435;27;20063;-58
2020/12/27 08:08:07;;;;;;;13.85;6.45;;;;;;;-0.69;48.28;99972.06;5131091;27;20195;-58
2020/12/27 08:10:34;;;;;;;10.27;6.07;;;;;;;-0.71;48.73;99971.25;5109418;27;20065;-55
2020/12/27 08:13:02;;;;;;;10.90;6.18;;;;;;;-0.62;48.33;99984.09;5128920;27;20023;-61
2020/12/27 08:15:29;;;;;;;11.52;6.30;;;;;;;-0.61;48.30;99986.66;5129293;27;20038;-57
2020/12/27 08:18:00;;;;;;;11.18;6.68;;;;;;;-1.05;48.40;99923.22;5130559;27;20045;-60
2020/12/27 08:20:27;;;;;;;12.73;6.47;;;;;;;-0.78;48.64;99984.56;5128652;27;20031;-56
2020/12/27 08:22:58;;;;;;;11.93;6.65;;;;;;;-0.78;48.29;99999.50;5130859;27;20062;-61
2020/12/27 08:25:24;;;;;;;10.80;6.57;;;;;;;-0.71;48.91;99992.28;5127535;27;20408;-60
2020/12/27 08:27:54;;;;;;;10.85;6.40;;;;;;;-0.71;48.65;100000.19;5130729;27;20030;-61
2020/12/27 08:30:19;;;;;;;11.93;6.38;;;;;;;-0.68;48.80;99994.81;5131880;27;20118;-63
2020/12/27 08:32:45;;;;;;;12.27;6.70;;;;;;;-0.67;48.51;99993.91;5132244;27;20168;-62
2020/12/27 08:35:23;;;;;;;12.00;6.68;;;;;;;-1.12;48.44;99940.94;5131851;27;20046;-60
2020/12/27 08:37:57;;;;;;;12.40;6.80;;;;;;;-0.81;48.78;99997.81;5103858;28;20041;-57
2020/12/27 08:40:25;;;;;;;11.23;6.72;;;;;;;-0.89;48.55;99997.22;5115288;27;20073;-58
2020/12/27 08:42:54;;;;;;;12.02;6.38;;;;;;;-1.09;48.98;99997.78;5130218;27;20482;-57
2020/12/27 08:45:21;;;;;;;12.43;6.75;;;;;;;-1.11;49.08;100015.38;5128618;27;20046;-54
2020/12/27 08:47:58;;;;;;;11.18;6.40;;;;;;;-1.15;49.11;100011.97;5130361;27;21030;-53
2020/12/27 08:50:26;;;;;;;12.52;6.88;;;;;;;-1.11;49.76;100026.75;5112232;27;20172;-54
2020/12/27 08:52:59;;;;;;;14.32;7.00;;;;;;;-1.11;49.57;100029.38;5111074;27;20030;-53
2020/12/27 08:55:27;;;;;;;10.55;6.53;;;;;;;-1.25;49.58;100032.41;5129647;27;20047;-56
2020/12/27 08:57:58;;;;;;;13.57;6.60;;;;;;;-1.43;49.52;100036.41;5130440;27;20129;-53
2020/12/27 09:00:32;;;;;;;12.57;7.10;;;;;;;-1.56;50.13;100035.03;5130562;27;20485;-55
2020/12/27 09:02:59;;;;;;;11.77;7.13;;;;;;;-1.61;50.23;100040.38;5112625;27;20043;-55
2020/12/27 09:05:32;;;;;;;11.02;6.60;;;;;;;-1.63;50.78;100048.31;5129810;27;20342;-55
2020/12/27 09:07:58;;;;;;;12.80;6.75;;;;;;;-1.56;50.72;100048.16;5111430;27;20038;-54
2020/12/27 09:10:26;;;;;;;10.75;6.63;;;;;;;-1.53;50.22;100056.81;5130898;27;20031;-54
2020/12/27 09:13:00;;;;;;;12.93;6.75;;;;;;;-1.43;50.41;100065.31;5111491;27;20150;-57
2020/12/27 09:15:37;;;;;;;14.10;6.70;;;;;;;-1.57;50.17;100039.38;5129927;27;20049;-57
2020/12/27 09:18:02;;;;;;;11.93;6.72;;;;;;;-1.44;49.94;100058.34;5110837;27;20482;-60
2020/12/27 09:20:29;;;;;;;14.45;7.55;;;;;;;-1.44;50.26;100060.97;5129688;27;20043;-57
2020/12/27 09:22:55;;;;;;;12.45;7.25;;;;;;;-1.54;50.47;100052.47;5129622;27;21000;-57
2020/12/27 09:25:23;;;;;;;11.00;6.65;;;;;;;-1.52;50.20;100076.03;5129019;27;20039;-60
2020/12/27 09:27:50;;;;;;;12.25;6.57;;;;;;;-1.55;50.45;100069.13;5129369;27;20043;-50
2020/12/27 09:30:17;;;;;;;13.10;7.40;;;;;;;-1.69;50.81;100074.72;5128765;27;20102;-55
2020/12/27 09:32:43;;;;;;;11.55;6.75;;;;;;;-1.74;50.81;100076.59;5129102;27;20145;-63
2020/12/27 09:35:08;;;;;;;12.13;6.82;;;;;;;-1.79;50.99;100083.75;5128770;27;20489;-64
2020/12/27 09:37:34;;;;;;;11.52;6.68;;;;;;;-1.86;50.93;100074.31;5128897;27;20046;-67
2020/12/27 09:40:01;;;;;;;13.98;6.78;;;;;;;-1.79;50.80;100083.75;5128828;27;20375;-65
2020/12/27 09:42:29;;;;;;;12.30;7.13;;;;;;;-1.75;50.71;100101.13;5129546;27;20486;-61
2020/12/27 09:44:56;;;;;;;11.05;6.30;;;;;;;-1.75;50.58;100091.50;5129580;27;20080;-68
2020/12/27 09:47:26;;;;;;;11.40;6.20;;;;;;;-1.86;49.98;100105.81;5128358;27;20154;-70
2020/12/27 09:50:00;;;;;;;11.65;6.20;;;;;;;-1.89;50.20;100130.34;5128869;27;20465;-63
2020/12/27 09:52:26;;;;;;;11.60;6.57;;;;;;;-2.01;50.43;100100.00;5129555;27;20494;-63
2020/12/27 09:54:51;;;;;;;12.70;6.90;;;;;;;-2.38;50.43;100048.44;5128324;27;20066;-63
2020/12/27 09:57:19;;;;;;;11.10;6.45;;;;;;;-1.94;50.27;100125.19;5128119;27;20035;-62
2020/12/27 09:59:47;;;;;;;15.07;6.47;;;;;;;-1.87;50.60;100128.53;5129134;27;20196;-62
2020/12/27 10:02:16;;;;;;;11.90;7.28;;;;;;;-1.78;50.63;100140.59;5127342;27;20047;-53
2020/12/27 10:04:41;;;;;;;11.20;6.55;;;;;;;-1.72;49.88;100124.69;5128163;27;20164;-62
2020/12/27 10:07:07;;;;;;;10.82;5.97;;;;;;;-1.65;49.43;100142.03;5129051;27;20118;-60
2020/12/27 10:09:32;;;;;;;11.02;6.43;;;;;;;-1.63;49.21;100141.97;5128431;28;20065;-55
2020/12/27 10:11:58;;;;;;;11.98;6.90;;;;;;;-1.61;49.21;100150.66;5128683;28;20508;-59
2020/12/27 10:14:24;;;;;;;13.43;6.35;;;;;;;-1.51;49.69;100167.06;5129073;28;20031;-61
2020/12/27 10:16:49;;;;;;;10.85;6.07;;;;;;;-1.57;49.46;100147.06;5129433;28;20545;-60
2020/12/27 10:19:15;;;;;;;13.77;6.43;;;;;;;-1.44;48.79;100150.25;5128711;28;20031;-60
2020/12/27 10:21:46;;;;;;;10.40;6.45;;;;;;;-1.45;48.13;100154.63;5128047;28;20062;-62
2020/12/27 10:24:11;;;;;;;10.48;6.10;;;;;;;-1.45;48.49;100156.38;5109822;28;20039;-54
2020/12/27 10:26:37;;;;;;;10.55;6.30;;;;;;;-1.53;48.25;100147.84;5121297;27;20085;-59
2020/12/27 10:29:02;;;;;;;12.27;6.65;;;;;;;-1.44;48.04;100176.53;5113122;28;20053;-60
2020/12/27 10:31:28;;;;;;;13.35;6.93;;;;;;;-1.54;48.51;100152.25;5118487;27;20033;-58
2020/12/27 10:33:53;;;;;;;12.57;7.18;;;;;;;-1.40;47.72;100177.28;5114125;27;20045;-57
2020/12/27 10:36:19;;;;;;;11.48;6.80;;;;;;;-1.62;47.92;100154.19;5132776;27;20027;-59
2020/12/27 10:38:44;;;;;;;10.68;5.97;;;;;;;-1.59;48.16;100170.75;5121472;27;20108;-62
2020/12/27 10:41:10;;;;;;;11.60;6.90;;;;;;;-1.53;47.44;100209.13;5111827;28;20039;-59
2020/12/27 10:43:35;;;;;;;12.07;6.20;;;;;;;-1.89;47.33;100167.09;5111658;28;20035;-58
2020/12/27 10:46:03;;;;;;;9.65;5.78;;;;;;;-1.69;47.27;100221.72;5123204;27;20097;-64
2020/12/27 10:48:30;;;;;;;9.52;5.90;;;;;;;-1.72;47.60;100211.31;5132692;27;20482;-59
2020/12/27 10:50:55;;;;;;;10.40;6.25;;;;;;;-1.79;47.45;100223.75;5131618;27;20027;-64
2020/12/27 10:53:21;;;;;;;10.88;6.10;;;;;;;-1.79;47.69;100230.72;5131306;27;20091;-62
2020/12/27 10:55:47;;;;;;;12.90;6.72;;;;;;;-1.75;47.74;100232.38;5131763;27;20083;-62
2020/12/27 10:58:13;;;;;;;12.70;7.05;;;;;;;-1.71;47.46;100223.53;5131725;27;20035;-67
2020/12/27 11:00:38;;;;;;;12.35;7.00;;;;;;;-1.72;47.49;100237.56;5132534;27;20451;-68
2020/12/27 11:03:04;;;;;;;12.85;7.25;;;;;;;-1.80;47.19;100245.63;5133583;27;20046;-71
2020/12/27 11:05:29;;;;;;;13.60;7.55;;;;;;;-1.88;47.53;100252.78;5133782;27;20122;-71
2020/12/27 11:07:55;;;;;;;14.20;8.15;;;;;;;-1.95;47.69;100256.47;5133184;27;20060;-71
2020/12/27 11:10:20;;;;;;;13.23;7.70;;;;;;;-1.96;47.09;100263.47;5117884;27;20042;-67
2020/12/27 11:12:46;;;;;;;12.23;7.15;;;;;;;-2.07;47.61;100268.09;5131474;27;20512;-70
2020/12/27 11:15:11;;;;;;;12.77;7.03;;;;;;;-2.06;47.74;100269.81;5131157;27;20041;-67
2020/12/27 11:17:37;;;;;;;14.88;7.25;;;;;;;-2.01;47.69;100286.31;5131224;27;20034;-67
2020/12/27 11:20:03;;;;;;;15.77;7.43;;;;;;;-2.61;47.43;100205.34;5131126;27;20045;-68
2020/12/27 11:22:29;;;;;;;13.15;7.57;;;;;;;-2.27;47.39;100286.88;5131119;27;20122;-61
2020/12/27 11:24:54;;;;;;;14.52;7.50;;;;;;;-2.39;48.43;100303.72;5133050;27;20441;-72
2020/12/27 11:27:20;;;;;;;13.10;7.22;;;;;;;-2.81;48.13;100255.56;5133055;27;20530;-70